createdAt,value
2023-02-06T00:00:06.170Z,8.21
2023-02-06T00:02:32.530Z,8.44
2023-02-06T00:04:58.969Z,8.67
2023-02-06T00:07:25.696Z,8.77
2023-02-06T00:09:52.101Z,9.08
2023-02-06T00:12:19.278Z,9.13
2023-02-06T00:14:46.238Z,9.24
2023-02-06T00:17:12.893Z,9.39
2023-02-06T00:19:39.238Z,9.33
2023-02-06T00:22:05.630Z,9.38
2023-02-06T00:24:32.007Z,8.82
2023-02-06T00:26:58.688Z,8.83
2023-02-06T00:29:25.034Z,8.50
2023-02-06T00:31:51.633Z,8.64
2023-02-06T00:34:18.985Z,8.56
2023-02-06T00:36:50.235Z,8.92
2023-02-06T00:39:18.417Z,9.04
2023-02-06T00:41:44.842Z,8.63
2023-02-06T00:44:11.877Z,8.27
2023-02-06T00:46:40.758Z,8.05
2023-02-06T00:49:07.456Z,7.70
2023-02-06T00:51:36.268Z,7.78
2023-02-06T00:54:05.242Z,7.50
2023-02-06T00:56:31.943Z,7.50
2023-02-06T00:58:58.433Z,7.50
2023-02-06T01:01:24.828Z,7.35
2023-02-06T01:03:51.167Z,7.74
2023-02-06T01:06:20.699Z,7.37
2023-02-06T01:08:52.381Z,7.86
2023-02-06T01:11:23.460Z,7.94
2023-02-06T01:13:49.880Z,7.63
2023-02-06T01:16:20.800Z,7.97
2023-02-06T01:18:50.218Z,8.01
2023-02-06T01:21:17.202Z,8.30
2023-02-06T01:23:43.884Z,8.82
2023-02-06T01:26:13.422Z,8.97
2023-02-06T01:28:40.341Z,8.94
2023-02-06T01:31:07.503Z,8.52
2023-02-06T01:33:34.516Z,8.93
2023-02-06T01:36:02.539Z,8.77
2023-02-06T01:38:29.187Z,9.02
2023-02-06T01:40:55.626Z,8.79
2023-02-06T01:43:22.291Z,9.34
2023-02-06T01:45:53.381Z,9.13
2023-02-06T01:48:20.019Z,8.64
2023-02-06T01:50:46.927Z,8.65
2023-02-06T01:53:25.156Z,8.09
2023-02-06T01:55:51.507Z,8.04
2023-02-06T01:58:18.280Z,8.89
2023-02-06T02:00:44.913Z,8.58
2023-02-06T02:03:11.316Z,8.53
2023-02-06T02:05:38.356Z,8.94
2023-02-06T02:08:04.805Z,8.48
2023-02-06T02:10:31.368Z,8.41
2023-02-06T02:12:58.079Z,8.36
2023-02-06T02:15:24.447Z,8.24
2023-02-06T02:17:50.851Z,8.42
2023-02-06T02:20:18.441Z,8.23
2023-02-06T02:22:45.361Z,8.33
2023-02-06T02:25:11.959Z,8.56
2023-02-06T02:27:38.455Z,8.35
2023-02-06T02:30:05.003Z,8.87
2023-02-06T02:32:40.146Z,9.06
2023-02-06T02:35:06.898Z,9.14
2023-02-06T02:37:33.843Z,9.27
2023-02-06T02:40:00.444Z,9.53
2023-02-06T02:42:26.837Z,9.11
2023-02-06T02:44:55.478Z,9.27
2023-02-06T02:47:21.977Z,9.50
2023-02-06T02:49:50.871Z,9.59
2023-02-06T02:52:17.261Z,9.23
2023-02-06T02:54:46.277Z,8.47
2023-02-06T02:57:12.720Z,8.70
2023-02-06T02:59:41.697Z,8.55
2023-02-06T03:02:09.109Z,9.14
2023-02-06T03:04:36.924Z,9.02
2023-02-06T03:07:03.423Z,9.09
2023-02-06T03:09:29.874Z,9.34
2023-02-06T03:11:57.099Z,9.43
2023-02-06T03:14:23.462Z,9.77
2023-02-06T03:16:50.232Z,9.10
2023-02-06T03:19:19.069Z,9.20
2023-02-06T03:21:46.179Z,9.43
2023-02-06T03:24:13.659Z,9.41
2023-02-06T03:26:41.213Z,9.29
2023-02-06T03:29:08.645Z,9.40
2023-02-06T03:31:35.053Z,9.13
2023-02-06T03:34:01.544Z,8.94
2023-02-06T03:36:30.387Z,9.38
2023-02-06T03:38:56.766Z,9.44
2023-02-06T03:41:30.162Z,9.38
2023-02-06T03:43:56.578Z,9.58
2023-02-06T03:46:23.027Z,9.85
2023-02-06T03:48:49.411Z,9.92
2023-02-06T03:51:15.912Z,10.29
2023-02-06T03:53:42.486Z,10.76
2023-02-06T03:56:10.095Z,11.15
2023-02-06T03:58:43.817Z,11.60
2023-02-06T04:01:10.435Z,11.37
2023-02-06T04:03:41.959Z,11.51
2023-02-06T04:06:08.430Z,10.96
2023-02-06T04:08:35.681Z,10.88
2023-02-06T04:11:02.126Z,11.10
2023-02-06T04:13:32.604Z,11.11
2023-02-06T04:15:59.176Z,11.40
2023-02-06T04:18:26.231Z,11.53
2023-02-06T04:20:52.709Z,11.29
2023-02-06T04:23:19.365Z,12.04
2023-02-06T04:25:47.792Z,11.86
2023-02-06T04:28:14.680Z,11.93
2023-02-06T04:30:41.234Z,11.66
2023-02-06T04:33:11.902Z,11.58
2023-02-06T04:35:38.459Z,11.48
2023-02-06T04:38:04.908Z,11.74
2023-02-06T04:40:31.493Z,11.04
2023-02-06T04:42:58.207Z,11.15
2023-02-06T04:45:24.952Z,11.12
2023-02-06T04:47:51.570Z,11.10
2023-02-06T04:50:20.830Z,11.46
2023-02-06T04:52:47.407Z,11.54
2023-02-06T04:55:13.760Z,11.65
2023-02-06T04:57:40.818Z,11.67
2023-02-06T05:00:11.445Z,11.87
2023-02-06T05:02:39.095Z,11.80
2023-02-06T05:05:06.576Z,12.00
2023-02-06T05:07:32.920Z,11.46
2023-02-06T05:09:59.808Z,11.89
2023-02-06T05:12:26.522Z,11.69
2023-02-06T05:14:55.230Z,11.95
2023-02-06T05:17:21.694Z,12.25
2023-02-06T05:19:48.253Z,12.06
2023-02-06T05:22:14.612Z,12.28
2023-02-06T05:24:43.396Z,12.20
2023-02-06T05:27:12.070Z,12.57
2023-02-06T05:29:39.753Z,12.56
2023-02-06T05:32:07.209Z,12.48
2023-02-06T05:34:34.303Z,12.66
2023-02-06T05:37:00.777Z,12.84
2023-02-06T05:39:27.365Z,12.41
2023-02-06T05:41:54.262Z,12.95
2023-02-06T05:44:20.687Z,12.76
2023-02-06T05:46:47.086Z,12.85
2023-02-06T05:49:17.092Z,12.88
2023-02-06T05:51:43.498Z,12.57
2023-02-06T05:54:12.734Z,12.92
2023-02-06T05:56:39.747Z,12.97
2023-02-06T05:59:08.472Z,13.68
2023-02-06T06:01:35.310Z,13.79
2023-02-06T06:04:01.817Z,13.55
2023-02-06T06:06:28.472Z,13.65
2023-02-06T06:08:57.996Z,14.10
2023-02-06T06:11:24.419Z,14.70
2023-02-06T06:13:51.172Z,13.98
2023-02-06T06:16:17.682Z,13.64
2023-02-06T06:18:47.357Z,14.20
2023-02-06T06:21:13.733Z,13.81
2023-02-06T06:23:40.094Z,13.72
2023-02-06T06:26:06.908Z,14.02
2023-02-06T06:28:35.574Z,13.99
2023-02-06T06:31:03.030Z,13.74
2023-02-06T06:33:29.778Z,13.47
2023-02-06T06:35:58.432Z,13.27
2023-02-06T06:38:24.976Z,13.12
2023-02-06T06:40:51.399Z,13.33
2023-02-06T06:43:17.808Z,13.39
2023-02-06T06:45:44.237Z,13.06
2023-02-06T06:48:10.658Z,12.93
2023-02-06T06:50:37.054Z,13.13
2023-02-06T06:53:03.743Z,13.32
2023-02-06T06:55:30.558Z,13.35
2023-02-06T06:57:57.484Z,12.73
2023-02-06T07:00:24.301Z,14.56
2023-02-06T07:02:50.769Z,13.16
2023-02-06T07:05:17.224Z,12.33
2023-02-06T07:07:43.626Z,12.91
2023-02-06T07:10:12.390Z,12.67
2023-02-06T08:32:55.608Z,15.69
2023-02-06T08:35:22.114Z,15.22
2023-02-06T08:37:50.933Z,14.89
2023-02-06T08:40:17.313Z,14.87
2023-02-06T08:42:43.696Z,14.97
2023-02-06T08:45:10.093Z,15.12
2023-02-06T08:47:36.587Z,15.55
2023-02-06T08:50:03.723Z,15.62
2023-02-06T08:52:30.305Z,15.13
2023-02-06T08:54:57.018Z,14.95
2023-02-06T08:57:23.382Z,14.91
2023-02-06T08:59:49.790Z,15.01
2023-02-06T09:02:16.436Z,15.42
2023-02-06T09:04:42.905Z,15.75
2023-02-06T09:07:09.448Z,16.00
2023-02-06T09:09:35.843Z,15.68
2023-02-06T09:12:02.227Z,15.73
2023-02-06T09:14:28.910Z,15.47
2023-02-06T09:16:55.289Z,15.43
2023-02-06T09:19:21.702Z,15.31
2023-02-06T09:21:48.040Z,15.02
2023-02-06T09:24:14.553Z,15.17
2023-02-06T09:26:57.318Z,15.21
2023-02-06T09:29:25.274Z,14.56
2023-02-06T09:31:51.868Z,14.60
2023-02-06T09:34:18.199Z,14.64
2023-02-06T09:36:44.833Z,14.71
2023-02-06T09:39:11.297Z,14.50
2023-02-06T09:41:37.712Z,14.88
2023-02-06T09:44:04.114Z,14.00
2023-02-06T09:46:33.062Z,14.12
2023-02-06T09:48:59.655Z,14.46
2023-02-06T09:51:26.213Z,14.80
2023-02-06T09:53:52.648Z,14.45
2023-02-06T09:56:19.355Z,14.58
2023-02-06T09:58:45.711Z,15.20
2023-02-06T10:01:12.129Z,14.90
2023-02-06T10:03:38.485Z,14.72
2023-02-06T10:06:05.889Z,14.95
2023-02-06T10:08:34.475Z,15.42
2023-02-06T10:11:01.039Z,15.75
2023-02-06T10:13:27.551Z,15.82
2023-02-06T10:15:55.954Z,15.17
2023-02-06T10:18:22.498Z,15.71
2023-02-06T10:20:49.008Z,15.68
2023-02-06T10:23:16.295Z,15.93
2023-02-06T10:25:42.739Z,15.59
2023-02-06T10:28:09.221Z,15.17
2023-02-06T10:30:35.649Z,15.74
2023-02-06T10:33:04.368Z,15.51
2023-02-06T10:35:36.809Z,14.93
2023-02-06T10:38:03.382Z,14.50
2023-02-06T10:40:33.903Z,14.80
2023-02-06T10:43:00.303Z,14.72
2023-02-06T10:45:26.693Z,14.11
2023-02-06T10:47:53.139Z,14.74
2023-02-06T10:50:19.650Z,15.56
2023-02-06T10:52:47.149Z,14.96
2023-02-06T10:55:14.689Z,14.73
2023-02-06T10:57:44.002Z,15.44
2023-02-06T11:00:10.398Z,14.99
2023-02-06T11:02:36.734Z,15.24
2023-02-06T11:05:03.605Z,15.80
2023-02-06T11:07:31.655Z,15.04
2023-02-06T11:09:58.119Z,15.11
2023-02-06T11:12:25.134Z,14.81
2023-02-06T11:14:51.502Z,14.41
2023-02-06T11:17:18.873Z,15.11
2023-02-06T11:19:46.081Z,15.00
2023-02-06T11:22:13.027Z,15.32
2023-02-06T11:24:41.784Z,15.00
2023-02-06T11:27:08.186Z,14.72
2023-02-06T11:29:36.876Z,15.04
2023-02-06T11:32:03.637Z,14.71
2023-02-06T11:34:30.170Z,14.74
2023-02-06T11:36:57.234Z,14.70
2023-02-06T11:39:23.928Z,14.66
2023-02-06T11:41:52.576Z,14.52
2023-02-06T11:44:19.021Z,14.67
2023-02-06T11:46:45.521Z,14.53
2023-02-06T11:49:16.218Z,14.84
2023-02-06T11:51:42.568Z,15.01
2023-02-06T11:54:08.982Z,15.06
2023-02-06T11:56:35.688Z,14.21
2023-02-06T11:59:02.699Z,14.32
2023-02-06T12:01:29.224Z,14.52
2023-02-06T12:03:56.291Z,15.03
2023-02-06T12:06:22.783Z,14.83
2023-02-06T12:08:50.839Z,14.32
2023-02-06T12:11:17.543Z,14.64
2023-02-06T12:13:43.939Z,14.27
2023-02-06T12:16:11.462Z,14.57
2023-02-06T12:18:38.122Z,14.53
2023-02-06T12:21:04.558Z,14.69
2023-02-06T12:23:33.042Z,14.48
2023-02-06T12:25:59.491Z,13.78
2023-02-06T12:28:26.938Z,13.78
2023-02-06T12:30:53.416Z,14.53
2023-02-06T12:33:21.393Z,13.46
2023-02-06T12:35:48.105Z,14.32
2023-02-06T12:38:14.578Z,14.72
2023-02-06T12:40:41.054Z,14.52
2023-02-06T12:43:09.623Z,14.08
2023-02-06T12:45:36.248Z,14.06
2023-02-06T12:48:02.850Z,14.05
2023-02-06T12:50:36.655Z,14.13
2023-02-06T12:53:04.011Z,14.40
2023-02-06T12:55:31.643Z,15.25
2023-02-06T12:58:06.161Z,14.92
2023-02-06T13:00:33.667Z,14.89
2023-02-06T13:03:00.819Z,14.71
2023-02-06T13:05:27.257Z,15.28
2023-02-06T13:07:56.130Z,14.99
2023-02-06T13:10:23.090Z,14.43
2023-02-06T13:12:49.469Z,15.07
2023-02-06T13:15:15.955Z,14.69
2023-02-06T13:17:44.678Z,15.08
2023-02-06T13:20:11.060Z,15.22
2023-02-06T13:22:39.527Z,15.53
2023-02-06T13:25:06.938Z,15.02
2023-02-06T13:27:33.511Z,14.85
2023-02-06T13:29:59.862Z,15.43
2023-02-06T13:32:27.243Z,15.64
2023-02-06T13:34:53.912Z,15.11
2023-02-06T13:37:20.386Z,14.60
2023-02-06T13:39:47.883Z,14.95
2023-02-06T13:42:14.350Z,15.15
2023-02-06T13:44:42.422Z,15.92
2023-02-06T13:47:12.085Z,14.41
2023-02-06T13:49:38.661Z,14.57
2023-02-06T13:52:05.068Z,14.10
2023-02-06T13:54:34.363Z,14.46
2023-02-06T13:57:02.222Z,14.50
2023-02-06T13:59:28.602Z,14.20
2023-02-06T14:01:55.045Z,14.46
2023-02-06T14:04:25.070Z,14.40
2023-02-06T14:06:55.157Z,14.34
2023-02-06T14:09:21.598Z,14.80
2023-02-06T14:11:48.063Z,14.89
2023-02-06T14:14:15.854Z,14.26
2023-02-06T14:16:42.371Z,13.93
2023-02-06T14:19:09.745Z,14.64
2023-02-06T14:21:36.097Z,14.41
2023-02-06T14:24:03.355Z,13.96
2023-02-06T14:26:29.945Z,13.50
2023-02-06T14:28:58.592Z,13.42
2023-02-06T14:31:25.087Z,13.56
2023-02-06T14:33:51.617Z,13.30
2023-02-06T14:36:18.432Z,12.94
2023-02-06T14:38:45.871Z,12.83
2023-02-06T14:41:12.325Z,13.04
2023-02-06T14:43:43.592Z,12.45
2023-02-06T14:46:10.412Z,13.36
2023-02-06T14:48:37.358Z,13.31
2023-02-06T14:51:07.955Z,13.75
2023-02-06T14:53:47.154Z,13.26
2023-02-06T14:56:15.358Z,13.17
2023-02-06T14:58:42.136Z,13.71
2023-02-06T15:01:08.963Z,14.24
2023-02-06T15:03:36.020Z,13.51
2023-02-06T15:06:02.555Z,13.66
2023-02-06T15:08:28.953Z,13.49
2023-02-06T15:10:55.834Z,13.59
2023-02-06T15:13:23.407Z,13.60
2023-02-06T15:15:49.788Z,13.43
2023-02-06T15:18:16.611Z,13.37
2023-02-06T15:20:42.995Z,12.96
2023-02-06T15:23:17.784Z,13.49
2023-02-06T15:25:44.982Z,13.50
2023-02-06T15:28:11.760Z,13.66
2023-02-06T15:30:38.615Z,13.56
2023-02-06T15:33:07.448Z,13.44
2023-02-06T15:35:34.242Z,13.31
2023-02-06T15:38:00.640Z,13.23
2023-02-06T15:40:27.009Z,13.54
2023-02-06T15:42:53.497Z,12.98
2023-02-06T15:45:19.889Z,12.92
2023-02-06T15:47:46.381Z,13.21
2023-02-06T15:50:12.743Z,13.30
2023-02-06T15:52:39.078Z,12.35
2023-02-06T15:55:05.535Z,11.82
2023-02-06T15:57:31.932Z,11.91
2023-02-06T15:59:58.297Z,11.90
2023-02-06T16:02:25.004Z,11.66
2023-02-06T16:04:51.846Z,11.79
2023-02-06T16:07:19.077Z,11.36
2023-02-06T16:09:45.542Z,12.26
2023-02-06T16:12:12.762Z,11.97
2023-02-06T16:14:39.181Z,11.73
2023-02-06T16:17:05.568Z,12.19
2023-02-06T16:19:31.957Z,12.01
2023-02-06T16:21:58.444Z,11.56
2023-02-06T16:24:24.969Z,12.42
2023-02-06T16:26:51.456Z,12.36
2023-02-06T16:29:17.978Z,12.72
2023-02-06T16:31:44.718Z,12.51
2023-02-06T16:34:11.343Z,12.72
2023-02-06T16:36:37.897Z,12.93
2023-02-06T16:39:04.943Z,12.52
2023-02-06T16:41:31.364Z,12.08
2023-02-06T16:43:57.876Z,11.60
2023-02-06T16:46:24.241Z,11.86
2023-02-06T16:48:50.609Z,12.34
2023-02-06T16:51:16.996Z,11.70
2023-02-06T16:53:45.348Z,11.69
2023-02-06T16:56:12.624Z,11.55
2023-02-06T16:58:39.065Z,11.69
2023-02-06T18:49:30.586Z,47.07
2023-02-06T18:51:57.282Z,9.90
2023-02-06T18:54:25.937Z,9.75
2023-02-06T18:56:52.868Z,9.59
2023-02-06T18:59:22.357Z,10.39
2023-02-06T19:01:49.748Z,10.24
2023-02-06T19:04:16.201Z,10.42
2023-02-06T19:06:42.798Z,9.94
2023-02-06T19:09:09.643Z,9.86
2023-02-06T19:11:36.580Z,10.00
2023-02-06T19:14:02.950Z,10.19
2023-02-06T19:16:32.240Z,9.63
2023-02-06T19:18:59.001Z,9.67
2023-02-06T19:21:25.389Z,10.00
